sensor_id;sensor_type;location;lat;lon;timestamp;P1;durP1;ratioP1;P2;durP2;ratioP2
6306;SDS011;3186;54.062;9.962;2023-05-14T00:01:36;7.43;;;4.00;;
6306;SDS011;3186;54.062;9.962;2023-05-14T00:04:03;7.17;;;4.33;;
6306;SDS011;3186;54.062;9.962;2023-05-14T00:06:29;6.50;;;3.97;;
6306;SDS011;3186;54.062;9.962;2023-05-14T00:08:54;6.10;;;4.23;;
6306;SDS011;3186;54.062;9.962;2023-05-14T00:11:21;8.27;;;4.17;;
6306;SDS011;3186;54.062;9.962;2023-05-14T00:13:47;3.97;;;3.57;;
6306;SDS011;3186;54.062;9.962;2023-05-14T00:16:14;5.97;;;3.80;;
6306;SDS011;3186;54.062;9.962;2023-05-14T00:18:40;7.40;;;3.87;;
6306;SDS011;3186;54.062;9.962;2023-05-14T00:21:05;6.90;;;4.23;;
6306;SDS011;3186;54.062;9.962;2023-05-14T00:23:31;4.13;;;3.73;;
6306;SDS011;3186;54.062;9.962;2023-05-14T00:25:57;4.53;;;3.93;;
6306;SDS011;3186;54.062;9.962;2023-05-14T00:28:23;3.53;;;3.23;;
6306;SDS011;3186;54.062;9.962;2023-05-14T00:30:49;4.40;;;3.73;;
6306;SDS011;3186;54.062;9.962;2023-05-14T00:33:16;4.33;;;3.63;;
6306;SDS011;3186;54.062;9.962;2023-05-14T00:35:41;5.77;;;3.80;;
6306;SDS011;3186;54.062;9.962;2023-05-14T00:38:07;4.53;;;4.00;;
6306;SDS011;3186;54.062;9.962;2023-05-14T00:40:34;4.63;;;3.67;;
6306;SDS011;3186;54.062;9.962;2023-05-14T00:42:59;5.80;;;3.83;;
6306;SDS011;3186;54.062;9.962;2023-05-14T00:45:25;5.13;;;3.93;;
6306;SDS011;3186;54.062;9.962;2023-05-14T00:47:52;8.00;;;4.03;;
6306;SDS011;3186;54.062;9.962;2023-05-14T00:50:18;7.10;;;4.30;;
6306;SDS011;3186;54.062;9.962;2023-05-14T00:52:45;5.10;;;3.60;;
6306;SDS011;3186;54.062;9.962;2023-05-14T00:55:12;6.57;;;4.13;;
6306;SDS011;3186;54.062;9.962;2023-05-14T00:57:40;5.23;;;4.27;;
6306;SDS011;3186;54.062;9.962;2023-05-14T01:00:07;4.97;;;3.83;;
6306;SDS011;3186;54.062;9.962;2023-05-14T01:02:33;4.00;;;3.50;;
6306;SDS011;3186;54.062;9.962;2023-05-14T01:04:59;4.63;;;3.67;;
6306;SDS011;3186;54.062;9.962;2023-05-14T01:10:13;4.47;;;3.97;;
6306;SDS011;3186;54.062;9.962;2023-05-14T01:13:00;4.23;;;3.80;;
6306;SDS011;3186;54.062;9.962;2023-05-14T01:15:30;6.13;;;4.23;;
6306;SDS011;3186;54.062;9.962;2023-05-14T01:18:03;4.13;;;3.70;;
6306;SDS011;3186;54.062;9.962;2023-05-14T01:20:31;6.40;;;4.33;;
6306;SDS011;3186;54.062;9.962;2023-05-14T01:22:57;10.33;;;4.40;;
6306;SDS011;3186;54.062;9.962;2023-05-14T01:25:23;4.47;;;4.07;;
6306;SDS011;3186;54.062;9.962;2023-05-14T01:27:52;4.60;;;3.87;;
6306;SDS011;3186;54.062;9.962;2023-05-14T01:32:52;4.73;;;4.33;;
6306;SDS011;3186;54.062;9.962;2023-05-14T01:35:22;7.10;;;4.77;;
6306;SDS011;3186;54.062;9.962;2023-05-14T01:37:52;5.87;;;3.77;;
6306;SDS011;3186;54.062;9.962;2023-05-14T01:40:20;4.60;;;4.13;;
6306;SDS011;3186;54.062;9.962;2023-05-14T01:42:48;8.33;;;4.50;;
6306;SDS011;3186;54.062;9.962;2023-05-14T01:45:16;5.67;;;4.00;;
6306;SDS011;3186;54.062;9.962;2023-05-14T01:47:44;5.07;;;4.57;;
6306;SDS011;3186;54.062;9.962;2023-05-14T01:50:10;6.73;;;4.03;;
6306;SDS011;3186;54.062;9.962;2023-05-14T01:52:36;7.20;;;4.77;;
6306;SDS011;3186;54.062;9.962;2023-05-14T01:55:02;3.97;;;3.57;;
6306;SDS011;3186;54.062;9.962;2023-05-14T01:57:29;6.03;;;3.93;;
6306;SDS011;3186;54.062;9.962;2023-05-14T01:59:55;7.97;;;4.63;;
6306;SDS011;3186;54.062;9.962;2023-05-14T02:02:21;8.10;;;4.70;;
6306;SDS011;3186;54.062;9.962;2023-05-14T02:04:47;5.27;;;4.07;;
6306;SDS011;3186;54.062;9.962;2023-05-14T02:07:13;6.03;;;3.97;;
6306;SDS011;3186;54.062;9.962;2023-05-14T02:09:39;4.90;;;4.40;;
6306;SDS011;3186;54.062;9.962;2023-05-14T02:12:05;4.47;;;4.07;;
6306;SDS011;3186;54.062;9.962;2023-05-14T02:14:32;4.87;;;4.20;;
6306;SDS011;3186;54.062;9.962;2023-05-14T02:16:58;6.07;;;4.10;;
6306;SDS011;3186;54.062;9.962;2023-05-14T02:19:24;4.97;;;3.73;;
6306;SDS011;3186;54.062;9.962;2023-05-14T02:21:50;7.73;;;4.53;;
6306;SDS011;3186;54.062;9.962;2023-05-14T02:24:16;3.93;;;3.63;;
6306;SDS011;3186;54.062;9.962;2023-05-14T02:26:42;4.80;;;4.03;;
6306;SDS011;3186;54.062;9.962;2023-05-14T02:29:07;5.53;;;4.13;;
6306;SDS011;3186;54.062;9.962;2023-05-14T02:31:33;4.50;;;4.03;;
6306;SDS011;3186;54.062;9.962;2023-05-14T02:34:03;5.03;;;3.67;;
6306;SDS011;3186;54.062;9.962;2023-05-14T02:36:30;6.20;;;4.00;;
6306;SDS011;3186;54.062;9.962;2023-05-14T02:38:57;4.90;;;4.10;;
6306;SDS011;3186;54.062;9.962;2023-05-14T02:41:23;4.50;;;4.10;;
6306;SDS011;3186;54.062;9.962;2023-05-14T02:43:51;4.30;;;3.90;;
6306;SDS011;3186;54.062;9.962;2023-05-14T02:46:17;3.80;;;3.50;;
6306;SDS011;3186;54.062;9.962;2023-05-14T02:48:44;6.57;;;4.17;;
6306;SDS011;3186;54.062;9.962;2023-05-14T02:51:10;5.27;;;4.23;;
6306;SDS011;3186;54.062;9.962;2023-05-14T02:53:36;5.17;;;4.20;;
6306;SDS011;3186;54.062;9.962;2023-05-14T02:56:02;4.50;;;4.10;;
6306;SDS011;3186;54.062;9.962;2023-05-14T02:58:28;5.00;;;4.50;;
6306;SDS011;3186;54.062;9.962;2023-05-14T03:00:54;5.83;;;4.00;;
6306;SDS011;3186;54.062;9.962;2023-05-14T03:03:20;4.97;;;4.13;;
6306;SDS011;3186;54.062;9.962;2023-05-14T03:05:46;7.17;;;4.50;;
6306;SDS011;3186;54.062;9.962;2023-05-14T03:08:12;4.73;;;4.27;;
6306;SDS011;3186;54.062;9.962;2023-05-14T03:10:38;5.87;;;4.23;;
6306;SDS011;3186;54.062;9.962;2023-05-14T03:13:03;4.87;;;4.37;;
6306;SDS011;3186;54.062;9.962;2023-05-14T03:15:29;6.20;;;3.90;;
6306;SDS011;3186;54.062;9.962;2023-05-14T03:17:55;5.60;;;4.60;;
6306;SDS011;3186;54.062;9.962;2023-05-14T03:20:22;5.53;;;4.47;;
6306;SDS011;3186;54.062;9.962;2023-05-14T03:22:51;11.10;;;3.97;;
6306;SDS011;3186;54.062;9.962;2023-05-14T03:25:17;7.23;;;4.07;;
6306;SDS011;3186;54.062;9.962;2023-05-14T03:27:43;5.00;;;4.50;;
6306;SDS011;3186;54.062;9.962;2023-05-14T03:30:08;7.57;;;4.50;;
6306;SDS011;3186;54.062;9.962;2023-05-14T03:32:35;7.87;;;4.27;;
6306;SDS011;3186;54.062;9.962;2023-05-14T03:35:01;5.07;;;4.40;;
6306;SDS011;3186;54.062;9.962;2023-05-14T03:37:27;5.30;;;4.23;;
6306;SDS011;3186;54.062;9.962;2023-05-14T03:39:53;7.47;;;4.37;;
6306;SDS011;3186;54.062;9.962;2023-05-14T03:42:19;4.40;;;4.00;;
6306;SDS011;3186;54.062;9.962;2023-05-14T03:44:46;4.80;;;4.40;;
6306;SDS011;3186;54.062;9.962;2023-05-14T03:47:12;6.93;;;4.47;;
6306;SDS011;3186;54.062;9.962;2023-05-14T03:49:37;4.93;;;4.47;;
6306;SDS011;3186;54.062;9.962;2023-05-14T03:52:05;5.20;;;3.80;;
6306;SDS011;3186;54.062;9.962;2023-05-14T03:54:31;5.73;;;4.67;;
6306;SDS011;3186;54.062;9.962;2023-05-14T03:56:58;5.33;;;4.20;;
6306;SDS011;3186;54.062;9.962;2023-05-14T03:59:24;5.00;;;4.40;;
6306;SDS011;3186;54.062;9.962;2023-05-14T04:01:52;6.93;;;4.20;;
6306;SDS011;3186;54.062;9.962;2023-05-14T04:04:18;4.67;;;4.17;;
6306;SDS011;3186;54.062;9.962;2023-05-14T04:06:44;5.47;;;4.40;;
6306;SDS011;3186;54.062;9.962;2023-05-14T04:09:10;5.83;;;4.63;;
6306;SDS011;3186;54.062;9.962;2023-05-14T04:11:36;5.07;;;4.40;;
6306;SDS011;3186;54.062;9.962;2023-05-14T04:14:02;6.30;;;4.70;;
6306;SDS011;3186;54.062;9.962;2023-05-14T04:16:28;6.50;;;4.27;;
6306;SDS011;3186;54.062;9.962;2023-05-14T04:18:54;5.10;;;4.23;;
6306;SDS011;3186;54.062;9.962;2023-05-14T04:21:19;7.00;;;4.60;;
6306;SDS011;3186;54.062;9.962;2023-05-14T04:23:45;6.33;;;4.20;;
6306;SDS011;3186;54.062;9.962;2023-05-14T04:26:11;5.83;;;4.87;;
6306;SDS011;3186;54.062;9.962;2023-05-14T04:28:37;8.47;;;4.30;;
6306;SDS011;3186;54.062;9.962;2023-05-14T04:31:03;6.30;;;4.40;;
6306;SDS011;3186;54.062;9.962;2023-05-14T04:33:28;4.23;;;3.93;;
6306;SDS011;3186;54.062;9.962;2023-05-14T04:35:54;5.27;;;4.53;;
6306;SDS011;3186;54.062;9.962;2023-05-14T04:38:20;4.83;;;4.03;;
6306;SDS011;3186;54.062;9.962;2023-05-14T04:40:47;5.17;;;4.20;;
6306;SDS011;3186;54.062;9.962;2023-05-14T04:43:13;5.53;;;4.30;;
6306;SDS011;3186;54.062;9.962;2023-05-14T04:45:38;5.40;;;4.40;;
6306;SDS011;3186;54.062;9.962;2023-05-14T04:48:05;7.27;;;4.13;;
6306;SDS011;3186;54.062;9.962;2023-05-14T04:50:32;5.63;;;4.37;;
6306;SDS011;3186;54.062;9.962;2023-05-14T04:52:58;5.47;;;4.17;;
6306;SDS011;3186;54.062;9.962;2023-05-14T04:55:25;6.70;;;4.07;;
6306;SDS011;3186;54.062;9.962;2023-05-14T04:57:50;7.17;;;4.27;;
6306;SDS011;3186;54.062;9.962;2023-05-14T05:00:16;4.47;;;3.73;;
6306;SDS011;3186;54.062;9.962;2023-05-14T05:02:43;5.73;;;4.13;;
6306;SDS011;3186;54.062;9.962;2023-05-14T05:05:09;5.10;;;4.30;;
6306;SDS011;3186;54.062;9.962;2023-05-14T05:07:34;6.37;;;4.63;;
6306;SDS011;3186;54.062;9.962;2023-05-14T05:10:01;8.93;;;4.93;;
6306;SDS011;3186;54.062;9.962;2023-05-14T05:12:26;6.47;;;4.27;;
6306;SDS011;3186;54.062;9.962;2023-05-14T05:14:56;4.50;;;4.10;;
6306;SDS011;3186;54.062;9.962;2023-05-14T05:17:22;6.00;;;3.90;;
6306;SDS011;3186;54.062;9.962;2023-05-14T05:19:49;4.27;;;3.87;;
6306;SDS011;3186;54.062;9.962;2023-05-14T05:22:14;4.67;;;4.23;;
6306;SDS011;3186;54.062;9.962;2023-05-14T05:24:40;5.97;;;4.83;;
6306;SDS011;3186;54.062;9.962;2023-05-14T05:27:06;29.90;;;5.60;;
6306;SDS011;3186;54.062;9.962;2023-05-14T05:29:33;5.70;;;4.53;;
6306;SDS011;3186;54.062;9.962;2023-05-14T05:31:59;6.97;;;5.23;;
6306;SDS011;3186;54.062;9.962;2023-05-14T05:34:25;6.93;;;5.17;;
6306;SDS011;3186;54.062;9.962;2023-05-14T05:36:51;5.93;;;3.90;;
6306;SDS011;3186;54.062;9.962;2023-05-14T05:39:17;6.03;;;4.47;;
6306;SDS011;3186;54.062;9.962;2023-05-14T05:41:43;7.23;;;5.47;;
6306;SDS011;3186;54.062;9.962;2023-05-14T05:44:08;14.80;;;4.97;;
6306;SDS011;3186;54.062;9.962;2023-05-14T05:46:34;5.33;;;4.70;;
6306;SDS011;3186;54.062;9.962;2023-05-14T05:49:00;5.60;;;4.63;;
6306;SDS011;3186;54.062;9.962;2023-05-14T05:51:26;5.80;;;4.37;;
6306;SDS011;3186;54.062;9.962;2023-05-14T05:53:52;6.93;;;4.50;;
6306;SDS011;3186;54.062;9.962;2023-05-14T05:56:17;5.77;;;4.70;;
6306;SDS011;3186;54.062;9.962;2023-05-14T05:58:43;7.73;;;4.93;;
6306;SDS011;3186;54.062;9.962;2023-05-14T06:01:09;4.40;;;4.00;;
6306;SDS011;3186;54.062;9.962;2023-05-14T06:03:35;9.87;;;4.87;;
6306;SDS011;3186;54.062;9.962;2023-05-14T06:06:01;5.33;;;4.50;;
6306;SDS011;3186;54.062;9.962;2023-05-14T06:08:27;4.53;;;4.10;;
6306;SDS011;3186;54.062;9.962;2023-05-14T06:10:52;6.37;;;3.93;;
6306;SDS011;3186;54.062;9.962;2023-05-14T06:13:18;6.53;;;4.13;;
6306;SDS011;3186;54.062;9.962;2023-05-14T06:15:44;7.33;;;3.83;;
6306;SDS011;3186;54.062;9.962;2023-05-14T06:18:10;4.60;;;4.20;;
6306;SDS011;3186;54.062;9.962;2023-05-14T06:20:36;5.87;;;4.23;;
6306;SDS011;3186;54.062;9.962;2023-05-14T06:23:01;10.00;;;4.90;;
6306;SDS011;3186;54.062;9.962;2023-05-14T06:25:27;5.20;;;4.10;;
6306;SDS011;3186;54.062;9.962;2023-05-14T06:27:53;6.73;;;4.00;;
6306;SDS011;3186;54.062;9.962;2023-05-14T06:30:19;5.87;;;4.07;;
6306;SDS011;3186;54.062;9.962;2023-05-14T06:32:45;5.57;;;4.37;;
6306;SDS011;3186;54.062;9.962;2023-05-14T06:35:10;4.57;;;3.50;;
6306;SDS011;3186;54.062;9.962;2023-05-14T06:37:36;6.60;;;3.70;;
6306;SDS011;3186;54.062;9.962;2023-05-14T06:40:02;4.50;;;4.03;;
6306;SDS011;3186;54.062;9.962;2023-05-14T06:42:29;3.73;;;3.43;;
6306;SDS011;3186;54.062;9.962;2023-05-14T06:44:56;5.63;;;3.80;;
6306;SDS011;3186;54.062;9.962;2023-05-14T06:47:22;4.50;;;3.33;;
6306;SDS011;3186;54.062;9.962;2023-05-14T06:49:48;5.50;;;3.73;;
6306;SDS011;3186;54.062;9.962;2023-05-14T06:52:14;4.67;;;3.53;;
6306;SDS011;3186;54.062;9.962;2023-05-14T06:54:40;4.23;;;3.67;;
6306;SDS011;3186;54.062;9.962;2023-05-14T06:57:05;5.57;;;3.83;;
6306;SDS011;3186;54.062;9.962;2023-05-14T06:59:31;3.53;;;3.23;;
6306;SDS011;3186;54.062;9.962;2023-05-14T07:01:57;4.37;;;3.53;;
6306;SDS011;3186;54.062;9.962;2023-05-14T07:04:23;5.53;;;3.67;;
6306;SDS011;3186;54.062;9.962;2023-05-14T07:06:49;5.37;;;3.03;;
6306;SDS011;3186;54.062;9.962;2023-05-14T07:09:15;5.10;;;3.50;;
6306;SDS011;3186;54.062;9.962;2023-05-14T07:11:41;6.27;;;4.07;;
6306;SDS011;3186;54.062;9.962;2023-05-14T07:14:06;8.37;;;3.33;;
6306;SDS011;3186;54.062;9.962;2023-05-14T07:16:32;4.17;;;3.73;;
6306;SDS011;3186;54.062;9.962;2023-05-14T07:18:58;3.77;;;3.47;;
6306;SDS011;3186;54.062;9.962;2023-05-14T07:21:24;3.80;;;3.50;;
6306;SDS011;3186;54.062;9.962;2023-05-14T07:23:50;4.47;;;3.37;;
6306;SDS011;3186;54.062;9.962;2023-05-14T07:26:16;8.90;;;3.40;;
6306;SDS011;3186;54.062;9.962;2023-05-14T07:28:41;6.30;;;3.20;;
6306;SDS011;3186;54.062;9.962;2023-05-14T07:31:07;3.87;;;3.20;;
6306;SDS011;3186;54.062;9.962;2023-05-14T07:33:34;5.33;;;4.00;;
6306;SDS011;3186;54.062;9.962;2023-05-14T07:36:00;3.50;;;3.20;;
6306;SDS011;3186;54.062;9.962;2023-05-14T07:38:26;6.73;;;3.20;;
6306;SDS011;3186;54.062;9.962;2023-05-14T07:40:52;4.33;;;3.57;;
6306;SDS011;3186;54.062;9.962;2023-05-14T07:43:18;6.37;;;3.10;;
6306;SDS011;3186;54.062;9.962;2023-05-14T07:45:44;8.93;;;3.20;;
6306;SDS011;3186;54.062;9.962;2023-05-14T07:48:10;3.57;;;3.27;;
6306;SDS011;3186;54.062;9.962;2023-05-14T07:50:36;3.80;;;3.50;;
6306;SDS011;3186;54.062;9.962;2023-05-14T07:53:02;5.77;;;3.27;;
6306;SDS011;3186;54.062;9.962;2023-05-14T07:55:28;3.57;;;3.23;;
6306;SDS011;3186;54.062;9.962;2023-05-14T07:57:53;6.73;;;2.80;;
6306;SDS011;3186;54.062;9.962;2023-05-14T08:00:19;3.20;;;2.90;;
6306;SDS011;3186;54.062;9.962;2023-05-14T08:02:45;5.03;;;3.53;;
6306;SDS011;3186;54.062;9.962;2023-05-14T08:05:11;3.07;;;2.73;;
6306;SDS011;3186;54.062;9.962;2023-05-14T08:07:37;4.33;;;3.47;;
6306;SDS011;3186;54.062;9.962;2023-05-14T08:10:03;7.97;;;2.93;;
6306;SDS011;3186;54.062;9.962;2023-05-14T08:12:29;5.50;;;3.40;;
6306;SDS011;3186;54.062;9.962;2023-05-14T08:14:54;3.70;;;3.20;;
6306;SDS011;3186;54.062;9.962;2023-05-14T08:17:20;6.20;;;3.13;;
6306;SDS011;3186;54.062;9.962;2023-05-14T08:19:46;3.43;;;3.00;;
6306;SDS011;3186;54.062;9.962;2023-05-14T08:22:13;4.53;;;3.03;;
6306;SDS011;3186;54.062;9.962;2023-05-14T08:24:39;8.60;;;3.03;;
6306;SDS011;3186;54.062;9.962;2023-05-14T08:27:07;6.80;;;3.20;;
6306;SDS011;3186;54.062;9.962;2023-05-14T08:29:33;5.60;;;3.00;;
6306;SDS011;3186;54.062;9.962;2023-05-14T08:31:59;3.50;;;2.87;;
6306;SDS011;3186;54.062;9.962;2023-05-14T08:34:25;4.93;;;2.83;;
6306;SDS011;3186;54.062;9.962;2023-05-14T08:36:52;6.03;;;2.70;;
6306;SDS011;3186;54.062;9.962;2023-05-14T08:39:17;5.20;;;2.87;;
6306;SDS011;3186;54.062;9.962;2023-05-14T08:41:43;7.97;;;2.83;;
6306;SDS011;3186;54.062;9.962;2023-05-14T08:46:38;4.80;;;3.17;;
6306;SDS011;3186;54.062;9.962;2023-05-14T08:51:52;6.57;;;3.10;;
6306;SDS011;3186;54.062;9.962;2023-05-14T08:54:18;3.23;;;2.40;;
6306;SDS011;3186;54.062;9.962;2023-05-14T08:56:48;5.27;;;2.57;;
6306;SDS011;3186;54.062;9.962;2023-05-14T08:59:16;3.33;;;2.70;;
6306;SDS011;3186;54.062;9.962;2023-05-14T09:01:43;7.40;;;2.70;;
6306;SDS011;3186;54.062;9.962;2023-05-14T09:04:12;4.20;;;3.13;;
6306;SDS011;3186;54.062;9.962;2023-05-14T09:06:40;3.37;;;2.60;;
6306;SDS011;3186;54.062;9.962;2023-05-14T09:09:07;4.53;;;2.87;;
6306;SDS011;3186;54.062;9.962;2023-05-14T09:11:39;3.90;;;2.93;;
6306;SDS011;3186;54.062;9.962;2023-05-14T09:14:06;3.93;;;3.07;;
6306;SDS011;3186;54.062;9.962;2023-05-14T09:16:32;4.97;;;3.30;;
6306;SDS011;3186;54.062;9.962;2023-05-14T09:19:01;3.90;;;2.87;;
6306;SDS011;3186;54.062;9.962;2023-05-14T09:21:31;5.87;;;2.70;;
6306;SDS011;3186;54.062;9.962;2023-05-14T09:23:57;4.90;;;2.90;;
6306;SDS011;3186;54.062;9.962;2023-05-14T09:26:23;6.03;;;2.93;;
6306;SDS011;3186;54.062;9.962;2023-05-14T09:28:53;4.97;;;3.10;;
6306;SDS011;3186;54.062;9.962;2023-05-14T09:31:20;5.00;;;2.80;;
6306;SDS011;3186;54.062;9.962;2023-05-14T09:33:52;7.53;;;2.80;;
6306;SDS011;3186;54.062;9.962;2023-05-14T09:36:18;6.60;;;2.70;;
6306;SDS011;3186;54.062;9.962;2023-05-14T09:38:44;6.07;;;3.00;;
6306;SDS011;3186;54.062;9.962;2023-05-14T09:41:09;5.40;;;2.73;;
6306;SDS011;3186;54.062;9.962;2023-05-14T09:43:35;3.63;;;2.70;;
6306;SDS011;3186;54.062;9.962;2023-05-14T09:46:01;6.07;;;2.97;;
6306;SDS011;3186;54.062;9.962;2023-05-14T09:48:27;3.67;;;2.70;;
6306;SDS011;3186;54.062;9.962;2023-05-14T09:50:53;5.87;;;3.47;;
6306;SDS011;3186;54.062;9.962;2023-05-14T09:53:19;6.67;;;2.80;;
6306;SDS011;3186;54.062;9.962;2023-05-14T09:55:45;3.63;;;3.03;;
6306;SDS011;3186;54.062;9.962;2023-05-14T09:58:11;3.60;;;2.60;;
6306;SDS011;3186;54.062;9.962;2023-05-14T10:00:44;2.90;;;2.70;;
6306;SDS011;3186;54.062;9.962;2023-05-14T10:03:12;5.57;;;3.13;;
6306;SDS011;3186;54.062;9.962;2023-05-14T10:05:39;4.63;;;2.97;;
6306;SDS011;3186;54.062;9.962;2023-05-14T10:08:13;9.43;;;2.63;;
6306;SDS011;3186;54.062;9.962;2023-05-14T10:10:46;2.93;;;2.70;;
6306;SDS011;3186;54.062;9.962;2023-05-14T10:13:16;6.57;;;2.60;;
6306;SDS011;3186;54.062;9.962;2023-05-14T10:15:51;3.43;;;2.63;;
6306;SDS011;3186;54.062;9.962;2023-05-14T10:18:22;3.70;;;2.30;;
6306;SDS011;3186;54.062;9.962;2023-05-14T10:20:56;5.90;;;2.80;;
6306;SDS011;3186;54.062;9.962;2023-05-14T10:23:30;7.20;;;2.70;;
6306;SDS011;3186;54.062;9.962;2023-05-14T10:25:59;6.30;;;2.70;;
6306;SDS011;3186;54.062;9.962;2023-05-14T10:28:26;5.00;;;2.87;;
6306;SDS011;3186;54.062;9.962;2023-05-14T10:30:52;6.90;;;2.63;;
6306;SDS011;3186;54.062;9.962;2023-05-14T10:33:19;5.63;;;2.67;;
6306;SDS011;3186;54.062;9.962;2023-05-14T10:35:55;5.17;;;2.70;;
6306;SDS011;3186;54.062;9.962;2023-05-14T10:38:32;3.20;;;2.47;;
6306;SDS011;3186;54.062;9.962;2023-05-14T10:41:00;5.40;;;2.60;;
6306;SDS011;3186;54.062;9.962;2023-05-14T10:43:27;3.20;;;2.40;;
6306;SDS011;3186;54.062;9.962;2023-05-14T10:45:55;5.43;;;3.00;;
6306;SDS011;3186;54.062;9.962;2023-05-14T10:48:22;3.53;;;2.60;;
6306;SDS011;3186;54.062;9.962;2023-05-14T10:50:50;4.80;;;2.70;;
6306;SDS011;3186;54.062;9.962;2023-05-14T10:53:16;3.63;;;2.30;;
6306;SDS011;3186;54.062;9.962;2023-05-14T10:55:42;3.93;;;2.60;;
6306;SDS011;3186;54.062;9.962;2023-05-14T10:58:09;5.47;;;3.13;;
6306;SDS011;3186;54.062;9.962;2023-05-14T11:00:36;3.10;;;2.63;;
6306;SDS011;3186;54.062;9.962;2023-05-14T11:03:03;3.33;;;2.83;;
6306;SDS011;3186;54.062;9.962;2023-05-14T11:05:30;3.17;;;2.53;;
6306;SDS011;3186;54.062;9.962;2023-05-14T11:07:57;3.00;;;2.57;;
6306;SDS011;3186;54.062;9.962;2023-05-14T11:10:23;5.07;;;2.50;;
6306;SDS011;3186;54.062;9.962;2023-05-14T11:12:50;4.07;;;2.90;;
6306;SDS011;3186;54.062;9.962;2023-05-14T11:15:17;4.07;;;2.63;;
6306;SDS011;3186;54.062;9.962;2023-05-14T11:17:45;3.10;;;2.70;;
6306;SDS011;3186;54.062;9.962;2023-05-14T11:20:13;3.27;;;2.80;;
6306;SDS011;3186;54.062;9.962;2023-05-14T11:22:39;6.13;;;2.73;;
6306;SDS011;3186;54.062;9.962;2023-05-14T11:25:07;3.90;;;2.20;;
6306;SDS011;3186;54.062;9.962;2023-05-14T11:27:34;6.10;;;2.73;;
6306;SDS011;3186;54.062;9.962;2023-05-14T11:30:02;3.63;;;2.40;;
6306;SDS011;3186;54.062;9.962;2023-05-14T11:32:28;4.17;;;2.30;;
6306;SDS011;3186;54.062;9.962;2023-05-14T11:34:56;4.20;;;2.17;;
6306;SDS011;3186;54.062;9.962;2023-05-14T11:37:22;6.33;;;2.10;;
6306;SDS011;3186;54.062;9.962;2023-05-14T11:39:52;4.77;;;2.70;;
6306;SDS011;3186;54.062;9.962;2023-05-14T11:42:19;5.93;;;2.43;;
6306;SDS011;3186;54.062;9.962;2023-05-14T11:44:46;4.57;;;2.40;;
6306;SDS011;3186;54.062;9.962;2023-05-14T11:47:13;2.77;;;2.30;;
6306;SDS011;3186;54.062;9.962;2023-05-14T11:49:40;6.80;;;2.70;;
6306;SDS011;3186;54.062;9.962;2023-05-14T11:52:07;8.53;;;2.70;;
6306;SDS011;3186;54.062;9.962;2023-05-14T11:54:39;3.00;;;2.70;;
6306;SDS011;3186;54.062;9.962;2023-05-14T11:57:09;2.97;;;2.50;;
6306;SDS011;3186;54.062;9.962;2023-05-14T11:59:36;4.93;;;3.07;;
6306;SDS011;3186;54.062;9.962;2023-05-14T12:02:03;2.80;;;2.33;;
6306;SDS011;3186;54.062;9.962;2023-05-14T12:04:30;5.37;;;2.43;;
6306;SDS011;3186;54.062;9.962;2023-05-14T12:06:57;2.97;;;2.70;;
6306;SDS011;3186;54.062;9.962;2023-05-14T12:09:24;2.70;;;2.47;;
6306;SDS011;3186;54.062;9.962;2023-05-14T12:11:50;3.53;;;2.40;;
6306;SDS011;3186;54.062;9.962;2023-05-14T12:14:20;5.47;;;2.80;;
6306;SDS011;3186;54.062;9.962;2023-05-14T12:16:47;7.57;;;2.50;;
6306;SDS011;3186;54.062;9.962;2023-05-14T12:19:15;5.57;;;2.90;;
6306;SDS011;3186;54.062;9.962;2023-05-14T12:21:42;7.23;;;3.20;;
6306;SDS011;3186;54.062;9.962;2023-05-14T12:24:12;8.20;;;2.50;;
6306;SDS011;3186;54.062;9.962;2023-05-14T12:26:43;2.97;;;2.63;;
6306;SDS011;3186;54.062;9.962;2023-05-14T12:29:13;3.97;;;2.77;;
6306;SDS011;3186;54.062;9.962;2023-05-14T12:31:46;3.23;;;2.40;;
6306;SDS011;3186;54.062;9.962;2023-05-14T12:34:14;3.27;;;2.60;;
6306;SDS011;3186;54.062;9.962;2023-05-14T12:36:41;3.43;;;2.93;;
6306;SDS011;3186;54.062;9.962;2023-05-14T12:39:07;3.67;;;2.80;;
6306;SDS011;3186;54.062;9.962;2023-05-14T12:41:34;3.27;;;3.00;;
6306;SDS011;3186;54.062;9.962;2023-05-14T12:44:01;3.30;;;2.87;;
6306;SDS011;3186;54.062;9.962;2023-05-14T12:46:28;4.47;;;2.80;;
6306;SDS011;3186;54.062;9.962;2023-05-14T12:48:55;4.77;;;2.60;;
6306;SDS011;3186;54.062;9.962;2023-05-14T12:51:21;5.10;;;2.60;;
6306;SDS011;3186;54.062;9.962;2023-05-14T12:53:47;3.47;;;2.60;;
6306;SDS011;3186;54.062;9.962;2023-05-14T12:56:13;14.43;;;3.63;;
6306;SDS011;3186;54.062;9.962;2023-05-14T12:58:40;5.20;;;3.13;;
6306;SDS011;3186;54.062;9.962;2023-05-14T13:01:05;3.07;;;2.60;;
6306;SDS011;3186;54.062;9.962;2023-05-14T13:03:31;4.37;;;2.70;;
6306;SDS011;3186;54.062;9.962;2023-05-14T13:05:57;4.17;;;2.97;;
6306;SDS011;3186;54.062;9.962;2023-05-14T13:08:23;4.00;;;2.93;;
6306;SDS011;3186;54.062;9.962;2023-05-14T13:10:50;5.13;;;2.80;;
6306;SDS011;3186;54.062;9.962;2023-05-14T13:13:19;3.90;;;2.90;;
6306;SDS011;3186;54.062;9.962;2023-05-14T13:15:45;6.03;;;3.10;;
6306;SDS011;3186;54.062;9.962;2023-05-14T13:18:14;6.67;;;2.90;;
6306;SDS011;3186;54.062;9.962;2023-05-14T13:20:41;4.27;;;2.73;;
6306;SDS011;3186;54.062;9.962;2023-05-14T13:23:07;4.53;;;3.07;;
6306;SDS011;3186;54.062;9.962;2023-05-14T13:25:33;3.73;;;3.10;;
6306;SDS011;3186;54.062;9.962;2023-05-14T13:27:59;3.53;;;2.53;;
6306;SDS011;3186;54.062;9.962;2023-05-14T13:30:25;4.10;;;3.20;;
6306;SDS011;3186;54.062;9.962;2023-05-14T13:32:51;5.37;;;3.33;;
6306;SDS011;3186;54.062;9.962;2023-05-14T13:35:17;4.70;;;2.73;;
6306;SDS011;3186;54.062;9.962;2023-05-14T13:37:43;4.93;;;3.80;;
6306;SDS011;3186;54.062;9.962;2023-05-14T13:40:09;2.63;;;2.37;;
6306;SDS011;3186;54.062;9.962;2023-05-14T13:42:35;3.50;;;2.87;;
6306;SDS011;3186;54.062;9.962;2023-05-14T13:45:01;7.87;;;3.13;;
6306;SDS011;3186;54.062;9.962;2023-05-14T13:47:28;5.20;;;2.90;;
6306;SDS011;3186;54.062;9.962;2023-05-14T13:49:54;4.97;;;2.93;;
6306;SDS011;3186;54.062;9.962;2023-05-14T13:52:20;4.80;;;2.97;;
6306;SDS011;3186;54.062;9.962;2023-05-14T13:54:47;8.90;;;3.00;;
6306;SDS011;3186;54.062;9.962;2023-05-14T13:57:13;6.80;;;3.07;;
6306;SDS011;3186;54.062;9.962;2023-05-14T13:59:39;4.40;;;2.70;;
6306;SDS011;3186;54.062;9.962;2023-05-14T14:02:05;8.50;;;3.67;;
6306;SDS011;3186;54.062;9.962;2023-05-14T14:04:31;2.97;;;2.70;;
6306;SDS011;3186;54.062;9.962;2023-05-14T14:06:57;5.70;;;2.70;;
6306;SDS011;3186;54.062;9.962;2023-05-14T14:09:23;4.43;;;2.90;;
6306;SDS011;3186;54.062;9.962;2023-05-14T14:11:49;3.57;;;2.83;;
6306;SDS011;3186;54.062;9.962;2023-05-14T14:14:15;3.63;;;3.20;;
6306;SDS011;3186;54.062;9.962;2023-05-14T14:16:41;4.13;;;3.07;;
6306;SDS011;3186;54.062;9.962;2023-05-14T14:19:07;4.57;;;2.60;;
6306;SDS011;3186;54.062;9.962;2023-05-14T14:21:34;5.30;;;3.10;;
6306;SDS011;3186;54.062;9.962;2023-05-14T14:24:00;5.93;;;3.40;;
6306;SDS011;3186;54.062;9.962;2023-05-14T14:26:26;3.97;;;2.93;;
6306;SDS011;3186;54.062;9.962;2023-05-14T14:28:53;4.57;;;3.40;;
6306;SDS011;3186;54.062;9.962;2023-05-14T14:31:19;3.23;;;2.90;;
6306;SDS011;3186;54.062;9.962;2023-05-14T14:33:46;4.80;;;2.93;;
6306;SDS011;3186;54.062;9.962;2023-05-14T14:36:12;4.83;;;2.93;;
6306;SDS011;3186;54.062;9.962;2023-05-14T14:38:37;4.93;;;2.90;;
6306;SDS011;3186;54.062;9.962;2023-05-14T14:41:04;3.13;;;2.80;;
6306;SDS011;3186;54.062;9.962;2023-05-14T14:43:34;4.80;;;3.30;;
6306;SDS011;3186;54.062;9.962;2023-05-14T14:46:00;5.63;;;2.83;;
6306;SDS011;3186;54.062;9.962;2023-05-14T14:48:27;7.53;;;3.00;;
6306;SDS011;3186;54.062;9.962;2023-05-14T14:51:04;3.93;;;2.90;;
6306;SDS011;3186;54.062;9.962;2023-05-14T14:53:32;3.57;;;3.23;;
6306;SDS011;3186;54.062;9.962;2023-05-14T14:55:58;3.43;;;3.13;;
6306;SDS011;3186;54.062;9.962;2023-05-14T14:58:24;4.87;;;2.83;;
6306;SDS011;3186;54.062;9.962;2023-05-14T15:00:52;3.50;;;3.20;;
6306;SDS011;3186;54.062;9.962;2023-05-14T15:03:19;5.57;;;3.30;;
6306;SDS011;3186;54.062;9.962;2023-05-14T15:05:45;3.70;;;2.80;;
6306;SDS011;3186;54.062;9.962;2023-05-14T15:08:12;3.60;;;3.30;;
6306;SDS011;3186;54.062;9.962;2023-05-14T15:10:38;5.03;;;3.30;;
6306;SDS011;3186;54.062;9.962;2023-05-14T15:13:05;4.40;;;2.77;;
6306;SDS011;3186;54.062;9.962;2023-05-14T15:15:32;3.50;;;3.20;;
6306;SDS011;3186;54.062;9.962;2023-05-14T15:17:59;3.07;;;2.77;;
6306;SDS011;3186;54.062;9.962;2023-05-14T15:20:25;6.70;;;2.83;;
6306;SDS011;3186;54.062;9.962;2023-05-14T15:22:51;5.50;;;2.93;;